WetterOnline ( http://www.wetteronline.de )

Wetter aktuell Lage

Aktuelles Wetter: Bad Salzuflen (139m)

6-stündlich | Neueste Meldungen
Ortszeit Temperatur Wetter
Di, 19.06. 2:00 16.3° C bewölkt
Mo, 18.06. 20:00 18.9° C bedeckt
Mo, 18.06. 14:00 19.5° C bedeckt
Mo, 18.06. 8:00 15.1° C bedeckt
Mo, 18.06. 2:00 14.2° C bedeckt
So, 17.06. 20:00 17.9° C wolkig
So, 17.06. 14:00 19.2° C bewölkt
So, 17.06. 8:00 15.6° C leicht bewölkt
Ortszeit Temperatur Wetter
Di, 19.06. 6:30 15.6° C bedeckt
Di, 19.06. 6:20 15.6° C bedeckt
Di, 19.06. 6:10 15.5° C bedeckt
Di, 19.06. 6:00 15.5° C bedeckt
Di, 19.06. 5:50 15.5° C bedeckt
Di, 19.06. 5:40 15.4° C bedeckt
Di, 19.06. 5:30 15.2° C bedeckt
Di, 19.06. 5:00 15.3° C bedeckt
Di, 19.06. 4:30 14.7° C wolkig
Di, 19.06. 4:00 14.1° C wolkenlos
Di, 19.06. 3:30 14.5° C fast wolkenlos
Ortszeit Relative Feuchte Sichtweite
Di, 19.06. 2:00 79% 18 km
Mo, 18.06. 20:00 76% 55 km
Mo, 18.06. 14:00 65% 70 km
Mo, 18.06. 8:00 74% 35 km
Mo, 18.06. 2:00 76% 26 km
So, 17.06. 20:00 55% 70 km
So, 17.06. 14:00 52% 30 km
So, 17.06. 8:00 78% 24 km
Ortszeit Relative Feuchte Sichtweite
Di, 19.06. 6:30 78% 45 km
Di, 19.06. 6:20 78% -
Di, 19.06. 6:10 79% -
Di, 19.06. 6:00 79% 27 km
Di, 19.06. 5:50 79% -
Di, 19.06. 5:40 81% -
Di, 19.06. 5:30 82% 24 km
Di, 19.06. 5:00 81% 18 km
Di, 19.06. 4:30 84% 14 km
Di, 19.06. 4:00 87% 15 km
Di, 19.06. 3:30 84% 16 km
Ortszeit Niederschlagsmenge Niederschlagsart
Di, 19.06. 2:00 0.1 l/m2 in 6 Std. Regen
Mo, 18.06. 20:00 0.1 l/m2 in 12 Std. Sprühregen
Mo, 18.06. 14:00 0.1 l/m2 in 6 Std. Regen
Mo, 18.06. 8:00 0.1 l/m2 in 12 Std. Sprühregen
Mo, 18.06. 2:00 0.1 l/m2 in 6 Std. Sprühregen
So, 17.06. 20:00 0.0 l/m2 in 12 Std. -
So, 17.06. 14:00 0.0 l/m2 in 6 Std. -
So, 17.06. 8:00 3 l/m2 in 12 Std. -
Ortszeit Niederschlagsmenge Niederschlagsart
Di, 19.06. 6:30 0.0 l/m2 in 1 Std. -
Di, 19.06. 6:20 keine Meldung -
Di, 19.06. 6:10 keine Meldung -
Di, 19.06. 6:00 0.0 l/m2 in 1 Std. -
Di, 19.06. 5:50 keine Meldung -
Di, 19.06. 5:40 keine Meldung -
Di, 19.06. 5:30 0.0 l/m2 in 1 Std. -
Di, 19.06. 5:00 0.0 l/m2 in 1 Std. -
Di, 19.06. 4:30 0.0 l/m2 in 1 Std. -
Di, 19.06. 4:00 0.0 l/m2 in 1 Std. -
Di, 19.06. 3:30 0.0 l/m2 in 1 Std. -
Ortszeit Stärke Spitze Richtung
km/h Bft. km/h Grad Sektor
Di, 19.06. 2:00 7 2 25 220° SW
Mo, 18.06. 20:00 11 2 40 210° SW
Mo, 18.06. 14:00 11 2 31 220° SW
Mo, 18.06. 8:00 11 2 22 210° SW
Mo, 18.06. 2:00 7 2 29 230° SW
So, 17.06. 20:00 7 2 40 240° SW
So, 17.06. 14:00 18 3 47 250° W
So, 17.06. 8:00 7 2 14 210° SW
Ortszeit Stärke Spitze Richtung
km/h Bft. km/h Grad Sektor
Di, 19.06. 6:30 7 2 18 210° SW
Di, 19.06. 6:20 7 2 - 210° SW
Di, 19.06. 6:10 7 2 - 210° SW
Di, 19.06. 6:00 11 2 18 220° SW
Di, 19.06. 5:50 11 2 - 220° SW
Di, 19.06. 5:40 9 2 - 210° SW
Di, 19.06. 5:30 6 1 15 210° SW
Di, 19.06. 5:00 7 2 11 210° SW
Di, 19.06. 4:30 6 1 9 190° S
Di, 19.06. 4:00 6 1 9 210° SW
Di, 19.06. 3:30 4 1 7 210° SW
Ortszeit Untergrenze Bedeckung Gattung
total tief tief mittel hoch
Di, 19.06. 2:00 1170 m 7/8 7/8 - - -
Mo, 18.06. 20:00 660 m 8/8 8/8 - - -
Mo, 18.06. 14:00 990 m 8/8 8/8 - - -
Mo, 18.06. 8:00 1050 m 8/8 8/8 - - -
Mo, 18.06. 2:00 2100 m 8/8 8/8 - - -
So, 17.06. 20:00 1350 m 8/8 2/8 - - -
So, 17.06. 14:00 1170 m 8/8 4/8 - - -
So, 17.06. 8:00 1380 m 2/8 4/8 - - -
Ortszeit Bedeckungsgrad in Achtel und Wolkenuntergrenze
Di, 19.06. 6:30 8(1500m)
Di, 19.06. 6:20 8(1500m)
Di, 19.06. 6:10 8(1500m)
Di, 19.06. 6:00 8(1500m)
Di, 19.06. 5:50 8(1500m)
Di, 19.06. 5:40 8(1500m)
Di, 19.06. 5:30 8(1500m)
Di, 19.06. 5:00 8(1500m)
Di, 19.06. 4:30 5(1500m)
Di, 19.06. 4:00 keine Wolken
Di, 19.06. 3:30 1(810m)
Ortszeit Luftdruck NN (hPa) Tendenz (hPa in 3 Std.)
Di, 19.06. 2:00 1021 + 0,7
Mo, 18.06. 20:00 1020 - 0,2
Mo, 18.06. 14:00 1020 - 0,3
Mo, 18.06. 8:00 1020 + 0,2
Mo, 18.06. 2:00 1020 + 0,8
So, 17.06. 20:00 1018 + 0,4
So, 17.06. 14:00 1017 + 0,6
So, 17.06. 8:00 1016 + 0,7
Ortszeit Luftdruck NN (hPa) Tendenz (hPa in 3 Std.)
Di, 19.06. 6:30 1021 + 0,4
Di, 19.06. 6:20 1021 keine Meldung
Di, 19.06. 6:10 1021 keine Meldung
Di, 19.06. 6:00 1021 + 0,5
Di, 19.06. 5:50 1021 keine Meldung
Di, 19.06. 5:40 1021 keine Meldung
Di, 19.06. 5:30 1021 + 0,2
Di, 19.06. 5:00 1021 0,0
Di, 19.06. 4:30 1021 - 0,1
Di, 19.06. 4:00 1021 + 0,1
Di, 19.06. 3:30 1021 + 0,2
Ortszeit Schneehöhe (cm)
Di, 19.06. 2:00 -
Mo, 18.06. 20:00 -
Mo, 18.06. 14:00 -
Mo, 18.06. 8:00 -
Mo, 18.06. 2:00 -
So, 17.06. 20:00 -
So, 17.06. 14:00 -
So, 17.06. 8:00 -
Ortszeit Schneehöhe (cm)
Di, 19.06. 6:30 -
Di, 19.06. 6:20 -
Di, 19.06. 6:10 -
Di, 19.06. 6:00 -
Di, 19.06. 5:50 -
Di, 19.06. 5:40 -
Di, 19.06. 5:30 -
Di, 19.06. 5:00 -
Di, 19.06. 4:30 -
Di, 19.06. 4:00 -
Di, 19.06. 3:30 -
Link zu dieser Seite / Seite empfehlen

Das Wetter in ...